Time;durP1;ratioP1;P1;durP2;ratioP2;P2;SDS_P1;SDS_P2;PMS_P1;PMS_P2;Temp;Humidity;BMP_temperature;BMP_pressure;BME280_temperature;BME280_humidity;BME280_pressure;Samples;Min_cycle;Max_cycle;Signal;HPM_P1;HPM_P2
2023/11/24 00:03:35;;;;;;;2.90;2.20;;;;;;;6.22;97.67;96759.61;436781;1252;108571;-39
2023/11/24 00:13:42;;;;;;;1.30;1.00;;;;;;;6.07;97.71;96756.81;436730;1254;97896;-40
2023/11/24 00:23:50;;;;;;;3.70;1.50;;;;;;;5.85;97.68;96787.98;436645;1253;109985;-40
2023/11/24 00:33:57;;;;;;;1.60;0.70;;;;;;;5.46;97.34;96788.77;436620;1254;107110;-41
2023/11/24 00:54:11;;;;;;;0.50;0.50;;;;;;;4.85;97.52;96776.25;436747;1248;108064;-42
2023/11/24 01:04:18;;;;;;;3.60;1.10;;;;;;;4.81;97.69;96742.93;436800;1254;97884;-44
2023/11/24 01:14:25;;;;;;;0.90;0.50;;;;;;;4.89;98.09;96754.16;436815;1254;111282;-43
2023/11/24 01:34:42;;;;;;;1.00;0.40;;;;;;;5.01;98.39;96713.27;436969;1254;97871;-44
2023/11/24 01:44:47;;;;;;;1.20;0.30;;;;;;;5.04;98.23;96694.86;437062;1253;109443;-43
2023/11/24 01:54:54;;;;;;;0.60;0.40;;;;;;;5.01;98.32;96682.99;436858;1261;97885;-44
2023/11/24 02:05:01;;;;;;;2.30;0.70;;;;;;;4.99;98.17;96684.08;436968;1253;110374;-45
2023/11/24 02:15:10;;;;;;;5.50;1.70;;;;;;;4.98;98.12;96673.30;437800;1248;107010;-44
2023/11/24 02:25:18;;;;;;;1.50;0.70;;;;;;;4.92;98.10;96665.36;436923;1247;97498;-44
2023/11/24 02:45:31;;;;;;;2.60;1.20;;;;;;;4.71;97.92;96665.39;436939;1248;96596;-44
2023/11/24 02:55:38;;;;;;;1.60;0.90;;;;;;;4.62;97.95;96663.38;436935;1251;110456;-45
2023/11/24 03:05:45;;;;;;;1.70;0.60;;;;;;;4.60;97.90;96674.96;436852;1251;108282;-45
2023/11/24 03:15:51;;;;;;;2.90;0.50;;;;;;;4.59;97.90;96671.40;436688;1251;97461;-43
2023/11/24 03:26:02;;;;;;;4.80;0.90;;;;;;;4.60;97.73;96652.35;436660;1251;109543;-45
2023/11/24 03:36:10;;;;;;;5.90;1.70;;;;;;;4.49;97.71;96615.12;436591;1251;97945;-44
2023/11/24 03:46:17;;;;;;;1.90;0.70;;;;;;;4.39;97.43;96622.51;436670;1261;109751;-43
2023/11/24 03:56:24;;;;;;;6.20;2.20;;;;;;;4.25;97.03;96635.39;436443;1248;108119;-43
2023/11/24 04:06:31;;;;;;;1.10;0.40;;;;;;;4.16;97.05;96631.46;436544;1251;97860;-44
2023/11/24 04:16:38;;;;;;;1.80;1.00;;;;;;;3.99;97.12;96652.48;436486;1247;108447;-44
2023/11/24 04:26:45;;;;;;;7.40;2.30;;;;;;;3.83;97.22;96671.55;436395;1253;97892;-44
2023/11/24 04:36:53;;;;;;;8.30;2.00;;;;;;;3.59;97.48;96636.52;436605;1252;109752;-43
2023/11/24 04:57:05;;;;;;;5.70;1.30;;;;;;;3.18;97.23;96637.14;436630;1251;97844;-45
2023/11/24 05:07:17;;;;;;;7.70;2.70;;;;;;;2.98;97.17;96625.02;436479;1253;110939;-43
2023/11/24 05:17:24;;;;;;;7.60;1.70;;;;;;;2.87;97.08;96627.22;436808;1251;107272;-44
2023/11/24 05:27:30;;;;;;;12.10;1.90;;;;;;;2.85;97.22;96635.80;436505;1248;97970;-42
2023/11/24 05:37:37;;;;;;;5.10;1.90;;;;;;;2.84;96.99;96630.27;436586;1251;109825;-44
2023/11/24 05:47:44;;;;;;;11.90;3.80;;;;;;;2.69;96.99;96656.39;436757;1247;108427;-44
2023/11/24 05:57:49;;;;;;;8.20;1.60;;;;;;;2.47;96.90;96662.02;436742;1248;97467;-43
2023/11/24 06:07:57;;;;;;;13.00;3.80;;;;;;;2.34;96.62;96675.74;436771;1251;97861;-43
2023/11/24 06:28:11;;;;;;;9.60;2.00;;;;;;;2.25;96.48;96699.48;436754;1247;97352;-46
2023/11/24 06:38:18;;;;;;;12.00;3.20;;;;;;;2.20;96.43;96706.55;436594;1247;107972;-46
2023/11/24 06:58:31;;;;;;;17.50;2.00;;;;;;;2.33;96.36;96725.91;436716;1247;97844;-43
2023/11/24 07:08:37;;;;;;;6.30;2.00;;;;;;;2.69;96.40;96725.31;436834;1251;107882;-46
2023/11/24 07:18:45;;;;;;;11.60;2.40;;;;;;;3.06;96.22;96711.06;436927;1247;97460;-44
2023/11/24 07:28:52;;;;;;;8.80;2.90;;;;;;;3.31;96.25;96703.25;436763;1251;109176;-44
2023/11/24 07:38:59;;;;;;;11.00;2.80;;;;;;;3.60;95.35;96693.91;436596;1251;107502;-43
2023/11/24 07:49:07;;;;;;;6.10;1.90;;;;;;;4.84;96.27;96683.23;436592;1251;97944;-43
2023/11/24 07:59:15;;;;;;;14.10;3.00;;;;;;;5.72;94.76;96672.52;436623;1247;110970;-44
2023/11/24 08:09:22;;;;;;;14.60;3.20;;;;;;;6.83;94.19;96665.30;436468;1247;107340;-44
2023/11/24 08:19:29;;;;;;;12.00;3.70;;;;;;;7.11;90.42;96660.84;436550;1247;97864;-44
2023/11/24 08:39:43;;;;;;;6.30;1.70;;;;;;;6.80;88.16;96662.77;436558;1247;108602;-45
2023/11/24 08:49:50;;;;;;;14.00;2.50;;;;;;;6.02;86.54;96663.55;436564;1251;97468;-43
2023/11/24 08:59:58;;;;;;;13.00;1.80;;;;;;;5.61;84.97;96658.98;436503;1247;109920;-43
2023/11/24 09:20:16;;;;;;;6.50;1.30;;;;;;;5.41;83.15;96652.52;436364;1250;99266;-43
2023/11/24 09:30:24;;;;;;;12.90;2.40;;;;;;;4.98;82.77;96648.69;436310;1248;108368;-45
2023/11/24 09:40:32;;;;;;;6.30;1.40;;;;;;;4.53;82.28;96633.91;436268;1253;97867;-43
2023/11/24 09:50:39;;;;;;;8.00;1.50;;;;;;;4.67;81.74;96620.40;436456;1248;97873;-42
2023/11/24 10:10:49;;;;;;;5.60;1.70;;;;;;;4.83;81.64;96583.70;436268;1253;97775;-43
2023/11/24 10:20:59;;;;;;;3.80;1.30;;;;;;;4.97;80.44;96568.21;436318;1248;97908;-43
2023/11/24 10:31:07;;;;;;;6.40;1.70;;;;;;;5.12;79.35;96552.20;436230;1248;108876;-43
2023/11/24 11:01:35;;;;;;;6.50;1.80;;;;;;;4.50;80.63;96540.45;436139;1253;108625;-44
2023/11/24 11:21:56;;;;;;;1.80;1.10;;;;;;;4.33;81.15;96528.45;436511;1252;97884;-43
2023/11/24 11:32:11;;;;;;;2.30;1.00;;;;;;;4.24;81.39;96531.27;436390;1253;108717;-43
2023/11/24 11:42:18;;;;;;;4.90;1.20;;;;;;;4.73;81.95;96523.35;436334;1248;106928;-43
2023/11/24 11:52:22;;;;;;;5.80;1.60;;;;;;;4.19;80.78;96518.24;436431;1253;97858;-41
2023/11/24 12:02:32;;;;;;;11.30;4.20;;;;;;;4.00;81.88;96515.20;436377;1248;109364;-41
2023/11/24 12:12:40;;;;;;;5.30;2.20;;;;;;;4.03;80.63;96498.05;436455;1250;107456;-40
2023/11/24 12:22:47;;;;;;;2.90;1.40;;;;;;;3.60;79.78;96504.55;436504;1253;97842;-39
2023/11/24 12:32:53;;;;;;;3.90;1.10;;;;;;;3.37;79.58;96511.61;436263;1247;110168;-39
2023/11/24 12:43:00;;;;;;;8.50;1.90;;;;;;;3.35;80.01;96509.42;436173;1253;426796;-39
2023/11/24 12:53:07;;;;;;;6.10;1.90;;;;;;;3.28;80.73;96500.45;436422;1252;97964;-39
2023/11/24 13:03:15;;;;;;;9.30;3.30;;;;;;;3.12;80.96;96489.80;436387;1248;110649;-41
2023/11/24 13:13:24;;;;;;;5.10;1.90;;;;;;;2.78;81.12;96482.86;436390;1266;108481;-38
2023/11/24 13:23:31;;;;;;;15.10;2.60;;;;;;;2.70;81.70;96478.59;436469;1251;97893;-39
2023/11/24 13:33:38;;;;;;;16.10;3.80;;;;;;;2.73;82.15;96482.55;436469;1250;110388;-39
2023/11/24 13:53:51;;;;;;;3.60;1.10;;;;;;;2.43;82.55;96496.78;436527;1252;97900;-39
2023/11/24 14:03:58;;;;;;;8.10;3.80;;;;;;;2.13;82.97;96482.17;436126;1253;110989;-40
2023/11/24 14:24:11;;;;;;;7.80;3.40;;;;;;;1.73;83.87;96492.39;436454;1253;97880;-39
2023/11/24 14:34:19;;;;;;;12.30;5.20;;;;;;;1.62;84.10;96488.02;436340;1253;111085;-40
2023/11/24 14:44:25;;;;;;;16.50;5.10;;;;;;;1.56;84.34;96491.20;436445;1253;109494;-40
2023/11/24 14:54:33;;;;;;;11.50;4.40;;;;;;;1.42;84.76;96489.73;436358;1248;97382;-39
2023/11/24 15:04:39;;;;;;;50.70;18.50;;;;;;;1.22;85.35;96486.69;436332;1253;110841;-39
2023/11/24 15:14:47;;;;;;;21.60;9.30;;;;;;;1.03;85.78;96478.09;436528;1253;105975;-40
2023/11/24 15:24:57;;;;;;;17.30;4.80;;;;;;;0.96;85.69;96480.67;436331;1253;106656;-39
2023/11/24 15:45:14;;;;;;;21.00;7.90;;;;;;;1.03;86.21;96482.82;436323;1253;107851;-39
2023/11/24 15:55:25;;;;;;;59.90;28.50;;;;;;;1.00;86.55;96486.95;436442;1248;96698;-39
2023/11/24 16:05:34;;;;;;;36.50;16.50;;;;;;;1.03;87.08;96490.11;436374;1253;97893;-39
2023/11/24 16:15:41;;;;;;;20.30;9.00;;;;;;;0.93;86.75;96494.52;436355;1248;111040;-40
2023/11/24 16:25:48;;;;;;;16.90;8.50;;;;;;;0.82;87.30;96496.27;436264;1253;108663;-40
2023/11/24 16:35:54;;;;;;;29.90;14.00;;;;;;;0.79;87.52;96484.34;436244;1251;99526;-41
2023/11/24 17:06:13;;;;;;;20.00;12.40;;;;;;;0.83;88.52;96513.83;436407;1253;96677;-40
2023/11/24 17:16:20;;;;;;;41.80;20.30;;;;;;;0.97;88.83;96512.29;436313;1247;106724;-40
2023/11/24 17:26:27;;;;;;;16.60;8.70;;;;;;;1.03;88.84;96493.87;436402;1253;97856;-40
2023/11/24 17:36:34;;;;;;;22.20;10.10;;;;;;;0.97;88.75;96494.95;436337;1253;110816;-40
2023/11/24 17:46:42;;;;;;;25.10;12.70;;;;;;;0.73;88.80;96496.06;436400;1251;108196;-39
2023/11/24 18:06:54;;;;;;;15.60;8.20;;;;;;;0.44;88.72;96486.64;436289;1253;97967;-39
2023/11/24 18:17:03;;;;;;;18.90;11.00;;;;;;;0.44;89.09;96477.55;436391;1251;108852;-39
2023/11/24 18:27:10;;;;;;;17.80;9.40;;;;;;;0.52;89.16;96479.60;436276;1253;97861;-40
2023/11/24 18:37:19;;;;;;;16.60;6.80;;;;;;;0.68;89.33;96485.27;436376;1251;111005;-38
2023/11/24 18:47:25;;;;;;;15.00;7.70;;;;;;;0.72;89.47;96485.35;436471;1253;108351;-39
2023/11/24 19:07:38;;;;;;;24.00;8.70;;;;;;;0.59;89.85;96473.30;436420;1255;110596;-39
2023/11/24 19:17:45;;;;;;;33.50;13.10;;;;;;;0.65;90.15;96471.42;436446;1253;108241;-40
2023/11/24 19:27:53;;;;;;;29.50;13.90;;;;;;;0.70;90.05;96461.88;436354;1248;97464;-41
2023/11/24 19:37:59;;;;;;;39.50;18.60;;;;;;;0.67;90.17;96455.23;436570;1253;108875;-39
2023/11/24 19:48:06;;;;;;;33.50;16.60;;;;;;;0.59;90.41;96450.50;436547;1253;107412;-40
2023/11/24 20:08:17;;;;;;;25.50;9.40;;;;;;;0.65;90.54;96434.83;436425;1253;98087;-39
2023/11/24 20:18:24;;;;;;;25.30;10.70;;;;;;;0.68;90.59;96436.26;436189;1250;107138;-38
2023/11/24 20:28:31;;;;;;;24.60;10.90;;;;;;;0.71;90.65;96448.31;436401;1261;97890;-40
2023/11/24 20:38:39;;;;;;;29.40;10.40;;;;;;;0.73;90.85;96443.48;436275;1253;96619;-39
2023/11/24 20:48:46;;;;;;;16.80;7.10;;;;;;;0.79;90.72;96436.98;436240;1254;109219;-40
2023/11/24 21:09:00;;;;;;;22.30;10.60;;;;;;;0.91;90.70;96435.05;436315;1252;97880;-39
2023/11/24 21:19:07;;;;;;;35.90;13.50;;;;;;;0.81;91.09;96443.54;436338;1249;108128;-39
2023/11/24 21:29:15;;;;;;;57.30;21.10;;;;;;;0.77;91.03;96441.98;436349;1248;96638;-39
2023/11/24 21:39:22;;;;;;;19.70;9.00;;;;;;;0.78;90.97;96438.66;436274;1254;97896;-40
2023/11/24 21:49:28;;;;;;;16.30;6.10;;;;;;;0.85;90.86;96438.02;436176;1261;106579;-39
2023/11/24 22:29:57;;;;;;;12.10;5.60;;;;;;;0.63;91.63;96422.77;436577;1251;97562;-39
2023/11/24 22:40:13;;;;;;;15.40;5.70;;;;;;;0.69;91.70;96411.84;436376;1254;109580;-40
2023/11/24 23:10:41;;;;;;;12.30;6.50;;;;;;;0.60;92.16;96399.08;436260;1254;110399;-39
2023/11/24 23:20:47;;;;;;;14.40;6.30;;;;;;;0.67;92.34;96400.05;436416;1248;107567;-39
2023/11/24 23:30:54;;;;;;;11.00;5.20;;;;;;;0.78;92.31;96393.71;436388;1254;96645;-38
